Appleton, Wisconsin
Current Conditions -  °F | °C
As of 6:45 PM on Tuesday 21 Oct 2014 (Local Time) from KATW Reporting Station
Clear Clear  
Wind Chill:   Ceiling: Unl
Heat Index:   Visibility: 10mi
Dew Point: -1°   Wind: 5mph
Humidity: 53%   Direction: NA
Pressure: 30.25"   Gusts: NA
Location:  44.26°N, 88.42°W
Report Text: KATW 212345Z VRB04KT 10SM SKC 08/M01 A3025
Loading
Personal Weather Stations






























Interactive Weather Map New forecast layout! Learn more

10-Day Weather Forecast

Advertisements
Track Severe Weather on mobile